Zografos, Greece
Current Conditions -  °F | °C
As of 6:20 PM on Monday 24 Nov 2014 (Local Time) from LGTS Reporting Station
Scattered Clouds Scattered Clouds  
Wind Chill: 54°   Ceiling: Unl
Heat Index: 54°   Visibility: 6mi
Dew Point: 37°   Wind: 7mph
Humidity: 54%   Direction: 310°NW
Pressure: 30.21"   Gusts: NA
Location:  40.28°N, 23.25°E
Report Text: LGTS 241520Z 31006KT 9999 FEW030 SCT080 12/03 Q1023 NOSIG
Loading
Personal Weather Stations






























Interactive Weather Map New forecast layout! Learn more

10-Day Weather Forecast

Advertisements
Track Severe Weather on mobile